createdAt,value
2022-08-18T00:01:25.640Z,78.05
2022-08-18T00:03:59.385Z,78.10
2022-08-18T00:06:31.058Z,78.13
2022-08-18T00:09:00.739Z,77.67
2022-08-18T00:11:41.588Z,77.83
2022-08-18T00:14:22.524Z,77.86
2022-08-18T00:16:53.942Z,77.86
2022-08-18T00:19:43.680Z,77.61
2022-08-18T00:22:15.402Z,77.39
2022-08-18T00:24:50.984Z,77.32
2022-08-18T00:27:23.180Z,77.71
2022-08-18T00:29:52.045Z,77.63
2022-08-18T00:32:26.802Z,77.47
2022-08-18T00:34:54.872Z,77.77
2022-08-18T00:37:24.001Z,77.43
2022-08-18T00:39:55.493Z,77.43
2022-08-18T00:42:31.330Z,77.55
2022-08-18T00:45:05.181Z,77.91
2022-08-18T00:47:42.304Z,77.75
2022-08-18T00:50:28.014Z,77.66
2022-08-18T00:53:06.087Z,77.94
2022-08-18T00:55:35.012Z,77.92
2022-08-18T00:58:17.005Z,77.81
2022-08-18T01:00:46.911Z,78.17
2022-08-18T01:03:24.552Z,77.91
2022-08-18T01:06:04.919Z,78.08
2022-08-18T01:08:32.968Z,78.22
2022-08-18T01:11:03.919Z,78.07
2022-08-18T01:13:34.091Z,78.09
2022-08-18T01:16:22.414Z,78.19
2022-08-18T01:19:08.655Z,78.22
2022-08-18T01:21:53.180Z,78.36
2022-08-18T01:24:44.665Z,78.60
2022-08-18T01:27:19.487Z,78.32
2022-08-18T01:29:50.633Z,78.31
2022-08-18T01:32:24.412Z,78.30
2022-08-18T01:34:53.487Z,78.55
2022-08-18T01:37:24.323Z,78.31
2022-08-18T01:41:23.807Z,78.47
2022-08-18T01:42:40.869Z,78.52
2022-08-18T01:45:09.323Z,78.61
2022-08-18T01:47:47.846Z,78.62
2022-08-18T01:50:26.396Z,78.78
2022-08-18T01:52:54.774Z,78.97
2022-08-18T01:55:22.882Z,79.00
2022-08-18T01:57:50.910Z,79.17
2022-08-18T02:00:20.158Z,79.25
2022-08-18T02:02:58.696Z,79.70
2022-08-18T02:05:37.748Z,79.36
2022-08-18T02:08:07.034Z,79.77
2022-08-18T02:10:36.432Z,79.61
2022-08-18T02:13:04.164Z,79.63
2022-08-18T02:15:33.243Z,79.67
2022-08-18T02:18:00.935Z,79.70
2022-08-18T02:20:28.874Z,79.67
2022-08-18T02:22:56.607Z,80.15
2022-08-18T02:25:24.289Z,79.52
2022-08-18T02:27:52.451Z,78.64
2022-08-18T02:30:20.590Z,78.50
2022-08-18T02:32:48.821Z,78.46
2022-08-18T02:35:16.737Z,78.46
2022-08-18T02:37:49.018Z,78.57
2022-08-18T02:40:18.249Z,78.71
2022-08-18T02:42:47.703Z,78.26
2022-08-18T02:45:15.669Z,77.91
2022-08-18T02:47:44.509Z,77.54
2022-08-18T02:50:13.919Z,76.63
2022-08-18T02:52:42.400Z,76.55
2022-08-18T02:55:10.934Z,76.57
2022-08-18T02:57:44.597Z,76.69
2022-08-18T03:00:16.224Z,77.07
2022-08-18T03:02:52.538Z,77.16
2022-08-18T03:05:20.403Z,77.21
2022-08-18T03:07:48.166Z,77.22
2022-08-18T03:10:32.283Z,77.33
2022-08-18T03:13:01.428Z,77.66
2022-08-18T03:15:29.188Z,77.86
2022-08-18T03:17:57.288Z,78.13
2022-08-18T03:20:30.787Z,78.47
2022-08-18T03:22:59.589Z,78.51
2022-08-18T03:25:33.709Z,78.82
2022-08-18T03:28:01.494Z,79.02
2022-08-18T03:30:29.139Z,79.33
2022-08-18T03:32:56.854Z,79.46
2022-08-18T03:35:24.537Z,79.35
2022-08-18T03:37:52.678Z,78.67
2022-08-18T03:40:20.793Z,78.80
2022-08-18T03:42:48.461Z,78.67
2022-08-18T03:45:17.699Z,79.17
2022-08-18T03:47:46.906Z,78.00
2022-08-18T03:50:14.722Z,78.14
2022-08-18T03:52:42.491Z,78.36
2022-08-18T03:55:10.776Z,77.97
2022-08-18T03:57:39.369Z,77.69
2022-08-18T04:00:08.242Z,77.70
2022-08-18T04:02:35.898Z,77.86
2022-08-18T04:05:05.374Z,78.23
2022-08-18T04:07:33.448Z,78.47
2022-08-18T04:10:01.225Z,78.61
2022-08-18T04:12:28.940Z,78.80
2022-08-18T04:14:56.581Z,79.02
2022-08-18T04:17:27.003Z,79.21
2022-08-18T04:19:56.396Z,79.58
2022-08-18T04:22:25.976Z,79.65
2022-08-18T04:24:54.907Z,79.86
2022-08-18T04:27:23.927Z,79.88
2022-08-18T04:29:51.968Z,80.05
2022-08-18T04:32:20.569Z,80.34
2022-08-18T04:34:48.307Z,80.28
2022-08-18T04:37:17.056Z,80.37
2022-08-18T04:39:45.639Z,80.45
2022-08-18T04:42:13.550Z,80.04
2022-08-18T04:44:41.345Z,80.16
2022-08-18T04:47:10.504Z,80.34
2022-08-18T04:49:38.286Z,80.57
2022-08-18T04:52:39.867Z,80.67
2022-08-18T04:55:09.785Z,80.96
2022-08-18T04:57:37.663Z,81.42
2022-08-18T05:00:07.257Z,81.61
2022-08-18T05:02:34.993Z,82.04
2022-08-18T05:05:04.894Z,82.24
2022-08-18T05:07:33.032Z,82.37
2022-08-18T05:10:00.766Z,82.41
2022-08-18T05:12:29.973Z,82.69
2022-08-18T05:14:58.041Z,82.96
2022-08-18T05:17:30.423Z,83.23
2022-08-18T05:20:02.682Z,83.85
2022-08-18T05:22:31.961Z,82.72
2022-08-18T05:25:01.257Z,82.63
2022-08-18T05:27:34.146Z,83.17
2022-08-18T05:30:03.437Z,82.61
2022-08-18T05:32:47.091Z,81.31
2022-08-18T05:35:22.130Z,80.44
2022-08-18T05:38:04.870Z,80.49
2022-08-18T05:40:33.065Z,79.63
2022-08-18T05:43:01.447Z,79.38
2022-08-18T05:45:29.491Z,79.68
2022-08-18T05:48:01.025Z,79.86
2022-08-18T05:50:30.560Z,80.15
2022-08-18T05:53:05.571Z,80.55
2022-08-18T05:56:18.473Z,81.62
2022-08-18T05:58:51.916Z,81.68
2022-08-18T06:01:25.114Z,81.15
2022-08-18T06:04:02.733Z,81.24
2022-08-18T06:06:33.105Z,81.61
2022-08-18T06:09:29.101Z,81.24
2022-08-18T06:12:23.762Z,82.15
2022-08-18T06:14:51.905Z,81.62
2022-08-18T06:17:32.259Z,81.29
2022-08-18T06:20:20.119Z,81.27
2022-08-18T06:22:59.715Z,81.06
2022-08-18T06:25:56.623Z,80.91
2022-08-18T06:28:24.595Z,80.74
2022-08-18T06:31:12.093Z,80.58
2022-08-18T06:33:40.477Z,80.80
2022-08-18T06:36:21.750Z,80.34
2022-08-18T06:39:05.610Z,80.21
2022-08-18T06:41:59.716Z,80.27
2022-08-18T06:44:41.678Z,80.31
2022-08-18T06:47:19.179Z,80.18
2022-08-18T06:50:04.137Z,80.64
2022-08-18T06:52:34.639Z,80.88
2022-08-18T06:55:08.172Z,80.61
2022-08-18T06:57:39.648Z,81.13
2022-08-18T07:00:32.568Z,81.16
2022-08-18T07:03:09.023Z,81.36
2022-08-18T07:05:38.400Z,81.86
2022-08-18T07:08:15.571Z,81.50
2022-08-18T07:10:49.539Z,81.64
2022-08-18T07:13:30.338Z,81.82
2022-08-18T07:16:56.554Z,81.11
2022-08-18T07:19:21.814Z,81.24
2022-08-18T07:22:10.444Z,80.88
2022-08-18T07:24:47.133Z,80.55
2022-08-18T07:27:21.498Z,80.28
2022-08-18T07:30:09.369Z,79.81
2022-08-18T07:32:52.392Z,79.32
2022-08-18T07:35:29.094Z,78.81
2022-08-18T07:38:18.638Z,78.84
2022-08-18T07:41:15.707Z,78.89
2022-08-18T07:44:04.530Z,78.99
2022-08-18T07:46:36.577Z,78.87
2022-08-18T07:49:05.702Z,78.80
2022-08-18T07:51:58.198Z,78.62
2022-08-18T07:54:57.804Z,78.08
2022-08-18T07:57:41.863Z,77.79
2022-08-18T08:00:26.781Z,77.83
2022-08-18T08:03:44.293Z,77.41
2022-08-18T08:06:28.707Z,77.57
2022-08-18T08:09:18.074Z,77.62
2022-08-18T08:11:59.731Z,77.67
2022-08-18T08:14:29.980Z,77.45
2022-08-18T08:17:06.032Z,77.31
2022-08-18T08:19:58.993Z,77.29
2022-08-18T08:22:31.767Z,76.91
2022-08-18T08:25:22.630Z,76.95
2022-08-18T08:28:04.170Z,76.53
2022-08-18T08:30:36.962Z,76.01
2022-08-18T08:33:20.531Z,75.99
2022-08-18T08:36:04.020Z,75.48
2022-08-18T08:38:42.693Z,74.78
2022-08-18T08:41:23.127Z,74.74
2022-08-18T08:44:01.607Z,74.83
2022-08-18T08:46:35.022Z,74.54
2022-08-18T08:49:28.935Z,74.31
2022-08-18T08:52:03.473Z,73.07
2022-08-18T08:54:58.092Z,72.88
2022-08-18T08:57:35.083Z,73.27
2022-08-18T09:00:06.299Z,73.06
2022-08-18T09:03:07.743Z,73.03
2022-08-18T09:05:56.781Z,73.03
2022-08-18T09:08:43.975Z,73.06
2022-08-18T09:11:40.965Z,72.82
2022-08-18T09:14:14.786Z,72.04
2022-08-18T09:17:18.558Z,71.90
2022-08-18T09:19:59.808Z,71.07
2022-08-18T09:22:53.210Z,71.07
2022-08-18T09:25:42.945Z,70.32
2022-08-18T09:28:29.116Z,69.73
2022-08-18T09:31:02.952Z,69.73
2022-08-18T09:33:41.935Z,68.43
2022-08-18T09:36:37.359Z,68.75
2022-08-18T09:39:48.050Z,68.48
2022-08-18T09:42:49.881Z,68.76
2022-08-18T09:45:34.314Z,68.73
2022-08-18T09:48:20.658Z,68.68
2022-08-18T09:51:24.487Z,68.56
2022-08-18T09:53:55.062Z,68.45
2022-08-18T09:56:54.449Z,68.46
2022-08-18T09:59:35.432Z,68.43
2022-08-18T10:02:33.100Z,68.07
2022-08-18T10:05:16.809Z,67.57
2022-08-18T10:07:54.348Z,67.54
2022-08-18T10:11:00.502Z,67.61
2022-08-18T10:13:48.270Z,67.56
2022-08-18T10:16:57.546Z,66.82
2022-08-18T10:19:49.815Z,66.88
2022-08-18T10:22:44.662Z,66.27
2022-08-18T10:25:22.687Z,65.96
2022-08-18T10:28:06.529Z,65.90
2022-08-18T10:30:56.754Z,65.72
2022-08-18T10:34:00.985Z,65.39
2022-08-18T10:36:45.909Z,64.53
2022-08-18T10:39:22.158Z,64.26
2022-08-18T10:42:19.263Z,64.38
2022-08-18T10:44:51.594Z,64.69
2022-08-18T10:47:33.687Z,64.91
2022-08-18T10:50:06.337Z,64.70
2022-08-18T10:55:50.121Z,64.65
2022-08-18T10:58:24.071Z,64.45
2022-08-18T11:01:14.326Z,64.61
2022-08-18T11:04:13.850Z,64.79
2022-08-18T11:06:48.871Z,65.11
2022-08-18T11:09:30.284Z,65.20
2022-08-18T11:12:03.195Z,64.92
2022-08-18T11:15:23.133Z,64.88
2022-08-18T11:18:18.204Z,64.07
2022-08-18T11:20:47.404Z,64.20
2022-08-18T11:23:18.326Z,64.31
2022-08-18T11:25:46.317Z,64.05
2022-08-18T11:28:23.077Z,63.97
2022-08-18T11:30:58.881Z,63.74
2022-08-18T11:33:28.861Z,63.70
2022-08-18T11:36:02.165Z,63.57
2022-08-18T11:38:33.162Z,63.46
2022-08-18T11:41:20.487Z,63.18
2022-08-18T11:43:50.441Z,62.58
2022-08-18T11:46:28.106Z,62.88
2022-08-18T11:49:01.616Z,62.74
2022-08-18T11:51:33.203Z,62.59
2022-08-18T11:54:23.235Z,62.28
2022-08-18T11:56:52.365Z,61.65
2022-08-18T11:59:52.562Z,61.79
2022-08-18T12:02:22.834Z,61.40
2022-08-18T12:04:57.380Z,60.75
2022-08-18T12:07:57.570Z,60.59
2022-08-18T12:10:29.750Z,60.02
2022-08-18T12:13:01.358Z,59.65
2022-08-18T12:15:44.300Z,59.23
2022-08-18T12:18:28.450Z,58.89
2022-08-18T12:21:02.754Z,58.83
2022-08-18T12:23:38.326Z,58.87
2022-08-18T12:26:07.233Z,58.89
2022-08-18T12:28:54.944Z,58.94
2022-08-18T12:31:42.395Z,58.75
2022-08-18T12:34:24.907Z,58.44
2022-08-18T12:36:57.916Z,58.16
2022-08-18T12:39:26.168Z,57.96
2022-08-18T12:41:53.979Z,58.25
2022-08-18T12:44:21.849Z,58.40
2022-08-18T12:46:50.289Z,58.31
2022-08-18T12:49:25.227Z,58.14
2022-08-18T12:51:56.564Z,57.75
2022-08-18T12:54:26.593Z,57.69
2022-08-18T12:56:58.724Z,57.33
2022-08-18T12:59:27.241Z,57.13
2022-08-18T13:02:00.786Z,56.85
2022-08-18T13:04:28.747Z,57.13
2022-08-18T13:07:01.967Z,57.38
2022-08-18T13:09:53.995Z,56.42
2022-08-18T13:12:24.257Z,56.65
2022-08-18T13:14:52.359Z,56.73
2022-08-18T13:17:32.061Z,56.13
2022-08-18T13:20:14.248Z,56.10
2022-08-18T13:22:42.666Z,55.20
2022-08-18T13:25:33.183Z,56.25
2022-08-18T13:28:03.368Z,56.34
2022-08-18T13:30:32.882Z,56.37
2022-08-18T13:33:05.225Z,56.61
2022-08-18T13:35:52.301Z,57.00
2022-08-18T13:38:25.677Z,57.48
2022-08-18T13:40:59.036Z,57.66
2022-08-18T13:43:37.889Z,57.68
2022-08-18T13:46:09.313Z,57.65
2022-08-18T13:48:38.888Z,57.73
2022-08-18T13:51:12.081Z,57.96
2022-08-18T13:53:52.202Z,57.98
2022-08-18T13:56:31.665Z,58.12
2022-08-18T13:58:59.646Z,58.33
2022-08-18T14:01:51.353Z,58.32
2022-08-18T14:04:20.448Z,58.68
2022-08-18T14:06:56.266Z,59.03
2022-08-18T14:09:35.760Z,59.32
2022-08-18T14:12:15.513Z,59.52
2022-08-18T14:14:52.377Z,59.46
2022-08-18T14:17:22.284Z,59.44
2022-08-18T14:20:15.390Z,59.49
2022-08-18T14:23:10.628Z,59.57
2022-08-18T14:25:57.328Z,59.49
2022-08-18T14:28:28.516Z,59.72
2022-08-18T14:30:58.114Z,59.82
2022-08-18T14:33:34.525Z,59.59
2022-08-18T14:36:18.289Z,59.81
2022-08-18T14:38:46.272Z,59.89
2022-08-18T14:41:19.973Z,60.04
2022-08-18T14:44:11.629Z,60.07
2022-08-18T14:46:41.855Z,59.88
2022-08-18T14:49:29.438Z,59.87
2022-08-18T14:52:02.031Z,59.99
2022-08-18T14:54:32.978Z,60.25
2022-08-18T14:57:06.530Z,60.88
2022-08-18T14:59:37.766Z,60.74
2022-08-18T15:02:07.665Z,60.91
2022-08-18T15:04:56.087Z,61.05
2022-08-18T15:07:26.079Z,61.24
2022-08-18T15:10:14.980Z,61.47
2022-08-18T15:12:42.395Z,61.82
2022-08-18T15:15:17.998Z,62.10
2022-08-18T15:17:52.337Z,62.09
2022-08-18T15:20:28.680Z,62.70
2022-08-18T15:23:22.887Z,62.49
2022-08-18T15:25:56.522Z,62.58
2022-08-18T15:28:27.426Z,62.51
2022-08-18T15:33:43.265Z,62.79
2022-08-18T15:36:28.804Z,62.78
2022-08-18T15:38:57.873Z,63.04
2022-08-18T15:41:44.069Z,63.34
2022-08-18T15:44:12.308Z,63.84
2022-08-18T15:46:40.403Z,64.56
2022-08-18T15:49:14.925Z,64.67
2022-08-18T15:51:45.593Z,64.68
2022-08-18T15:54:13.522Z,65.12
2022-08-18T15:56:43.347Z,65.66
2022-08-18T15:59:12.718Z,66.02
2022-08-18T16:01:43.469Z,66.55
2022-08-18T16:04:11.792Z,67.42
2022-08-18T16:06:41.982Z,67.18
2022-08-18T16:09:13.423Z,68.03
2022-08-18T16:11:42.115Z,68.72
2022-08-18T16:14:10.285Z,69.13
2022-08-18T16:16:38.337Z,70.46
2022-08-18T16:19:07.783Z,70.38
2022-08-18T16:21:41.160Z,72.02
2022-08-18T16:24:09.615Z,72.31
2022-08-18T16:26:37.273Z,72.76
2022-08-18T16:29:05.018Z,72.97
2022-08-18T16:31:32.701Z,73.96
2022-08-18T16:34:00.382Z,74.79
2022-08-18T16:36:28.102Z,75.62
2022-08-18T16:38:58.654Z,77.42
2022-08-18T16:41:27.652Z,76.36
2022-08-18T16:43:55.805Z,77.12
2022-08-18T16:46:28.204Z,77.50
2022-08-18T16:48:58.096Z,78.32
2022-08-18T16:51:29.388Z,79.39
2022-08-18T16:53:57.079Z,79.93
2022-08-18T16:56:27.722Z,80.73
2022-08-18T16:59:14.981Z,81.63
2022-08-18T17:02:01.959Z,82.88
2022-08-18T17:04:34.787Z,84.51
2022-08-18T17:07:07.291Z,87.27
2022-08-18T17:09:35.998Z,89.72
2022-08-18T17:12:03.947Z,92.10
2022-08-18T17:14:33.166Z,91.43
2022-08-18T17:17:01.648Z,93.36
2022-08-18T17:19:34.285Z,93.46
2022-08-18T17:22:04.360Z,94.13
2022-08-18T17:24:32.764Z,92.66
2022-08-18T17:27:26.430Z,93.81
2022-08-18T17:30:04.810Z,93.31
2022-08-18T17:32:55.331Z,93.54
2022-08-18T17:35:29.053Z,93.17
2022-08-18T17:38:16.242Z,93.68
2022-08-18T17:40:50.513Z,93.65
2022-08-18T17:43:21.204Z,94.17
2022-08-18T17:45:56.076Z,95.67
2022-08-18T17:48:29.752Z,95.27
2022-08-18T17:51:29.686Z,95.96
2022-08-18T17:54:02.076Z,95.53
2022-08-18T17:56:37.466Z,95.66
2022-08-18T17:59:46.181Z,95.85
2022-08-18T18:02:29.919Z,98.09
2022-08-18T18:05:00.387Z,100.00
2022-08-18T18:07:39.530Z,99.86
2022-08-18T18:10:10.430Z,99.14
2022-08-18T18:12:39.825Z,98.45
2022-08-18T18:15:11.385Z,100.00
2022-08-18T18:17:42.721Z,100.00
2022-08-18T18:20:19.563Z,100.00
2022-08-18T18:22:47.305Z,100.00
2022-08-18T18:25:34.315Z,100.00
2022-08-18T18:28:02.784Z,100.00
2022-08-18T18:30:30.957Z,100.00
2022-08-18T18:33:04.006Z,100.00
2022-08-18T18:35:54.857Z,100.00
2022-08-18T18:38:25.785Z,100.00
2022-08-18T18:41:13.431Z,100.00
2022-08-18T18:43:47.921Z,100.00
2022-08-18T18:46:20.351Z,100.00
2022-08-18T18:49:15.979Z,100.00
2022-08-18T18:52:07.287Z,100.00
2022-08-18T18:54:50.459Z,100.00
2022-08-18T18:58:00.946Z,100.00
2022-08-18T19:00:53.884Z,100.00
2022-08-18T19:03:27.513Z,100.00
2022-08-18T19:06:00.784Z,100.00
2022-08-18T19:08:40.783Z,100.00
2022-08-18T19:11:45.990Z,100.00
2022-08-18T19:14:22.080Z,100.00
2022-08-18T19:16:52.784Z,100.00
2022-08-18T19:19:36.805Z,100.00
2022-08-18T19:22:18.773Z,100.00
2022-08-18T19:24:55.367Z,100.00
2022-08-18T19:27:39.308Z,100.00
2022-08-18T19:30:12.974Z,100.00
2022-08-18T19:32:45.394Z,100.00
2022-08-18T19:35:23.185Z,100.00
2022-08-18T19:38:08.935Z,100.00
2022-08-18T19:40:39.519Z,100.00
2022-08-18T19:43:13.652Z,100.00
2022-08-18T19:46:03.153Z,100.00
2022-08-18T19:48:44.045Z,100.00
2022-08-18T19:51:39.618Z,100.00
2022-08-18T19:54:10.328Z,100.00
2022-08-18T19:56:53.749Z,100.00
2022-08-18T19:59:51.673Z,100.00
2022-08-18T20:02:39.894Z,100.00
2022-08-18T20:05:24.994Z,100.00
2022-08-18T20:08:13.003Z,100.00
2022-08-18T20:11:12.084Z,100.00
2022-08-18T20:13:43.557Z,100.00
2022-08-18T20:16:28.535Z,100.00
2022-08-18T20:19:39.422Z,100.00
2022-08-18T20:22:16.173Z,100.00
2022-08-18T20:25:00.706Z,100.00
2022-08-18T20:27:39.753Z,100.00
2022-08-18T20:30:34.210Z,100.00
2022-08-18T20:33:11.107Z,100.00
2022-08-18T20:35:53.066Z,100.00
2022-08-18T20:38:37.562Z,100.00
2022-08-18T20:41:44.718Z,100.00
2022-08-18T20:44:30.691Z,100.00
2022-08-18T20:47:16.179Z,100.00
2022-08-18T20:50:08.910Z,100.00
2022-08-18T20:52:57.329Z,100.00
2022-08-18T20:55:53.390Z,100.00
2022-08-18T20:58:26.406Z,100.00
2022-08-18T21:00:58.161Z,100.00
2022-08-18T21:03:39.593Z,100.00
2022-08-18T21:06:08.578Z,100.00
2022-08-18T21:08:38.694Z,100.00
2022-08-18T21:11:21.054Z,100.00
2022-08-18T21:14:04.055Z,100.00
2022-08-18T21:16:46.627Z,100.00
2022-08-18T21:19:21.699Z,100.00
2022-08-18T21:21:52.845Z,100.00
2022-08-18T21:24:38.776Z,100.00
2022-08-18T21:27:16.195Z,100.00
2022-08-18T21:29:49.102Z,100.00
2022-08-18T21:32:28.914Z,100.00
2022-08-18T21:34:56.581Z,100.00
2022-08-18T21:37:24.270Z,100.00
2022-08-18T21:39:57.810Z,100.00
2022-08-18T21:42:31.175Z,100.00
2022-08-18T21:45:01.103Z,100.00
2022-08-18T21:47:35.802Z,100.00
2022-08-18T21:50:17.268Z,100.00
2022-08-18T21:53:01.790Z,100.00
2022-08-18T21:55:48.391Z,100.00
2022-08-18T21:58:18.669Z,100.00
2022-08-18T22:01:11.760Z,100.00
2022-08-18T22:04:01.950Z,100.00
2022-08-18T22:06:35.457Z,100.00
2022-08-18T22:09:30.922Z,100.00
2022-08-18T22:12:41.963Z,100.00
2022-08-18T22:15:20.665Z,100.00
2022-08-18T22:17:54.002Z,100.00
2022-08-18T22:20:39.339Z,100.00
2022-08-18T22:23:27.783Z,100.00
2022-08-18T22:26:13.461Z,100.00
2022-08-18T22:29:11.348Z,100.00
2022-08-18T22:31:42.851Z,100.00
2022-08-18T22:34:14.666Z,100.00
2022-08-18T22:36:46.667Z,100.00
2022-08-18T22:39:23.700Z,100.00
2022-08-18T22:41:51.441Z,100.00
2022-08-18T22:44:19.149Z,100.00
2022-08-18T22:46:46.870Z,100.00
2022-08-18T22:49:14.565Z,100.00
2022-08-18T22:51:42.433Z,100.00
2022-08-18T22:54:11.971Z,100.00
2022-08-18T22:56:40.234Z,100.00
2022-08-18T22:59:22.705Z,100.00
2022-08-18T23:01:52.198Z,100.00
2022-08-18T23:04:22.236Z,100.00
2022-08-18T23:06:53.228Z,100.00
2022-08-18T23:09:32.532Z,100.00
2022-08-18T23:12:11.135Z,100.00
2022-08-18T23:14:39.233Z,100.00
2022-08-18T23:17:08.852Z,100.00
2022-08-18T23:19:36.509Z,100.00
2022-08-18T23:22:06.258Z,100.00
2022-08-18T23:24:33.933Z,100.00
2022-08-18T23:27:01.720Z,100.00
2022-08-18T23:29:29.436Z,100.00
2022-08-18T23:31:57.082Z,100.00
2022-08-18T23:34:25.778Z,100.00
2022-08-18T23:36:57.927Z,100.00
2022-08-18T23:39:26.818Z,100.00
2022-08-18T23:41:55.371Z,100.00
2022-08-18T23:44:27.341Z,100.00
2022-08-18T23:46:56.575Z,100.00
2022-08-18T23:49:24.565Z,100.00
2022-08-18T23:51:55.468Z,100.00
2022-08-18T23:54:28.213Z,100.00
2022-08-18T23:56:56.170Z,100.00
2022-08-18T23:59:25.700Z,100.00
